sensor_id;sensor_type;location;lat;lon;timestamp;P1;durP1;ratioP1;P2;durP2;ratioP2
19519;SDS011;9904;52.246;20.898;2022-08-03T00:00:24;21.03;;;13.60;;
19519;SDS011;9904;52.246;20.898;2022-08-03T00:02:51;23.60;;;13.90;;
19519;SDS011;9904;52.246;20.898;2022-08-03T00:05:18;17.23;;;12.53;;
19519;SDS011;9904;52.246;20.898;2022-08-03T00:07:45;23.40;;;13.67;;
19519;SDS011;9904;52.246;20.898;2022-08-03T00:10:13;19.70;;;13.97;;
19519;SDS011;9904;52.246;20.898;2022-08-03T00:12:40;18.60;;;14.23;;
19519;SDS011;9904;52.246;20.898;2022-08-03T00:15:06;17.80;;;13.50;;
19519;SDS011;9904;52.246;20.898;2022-08-03T00:17:41;16.27;;;12.03;;
19519;SDS011;9904;52.246;20.898;2022-08-03T00:20:19;14.90;;;11.40;;
19519;SDS011;9904;52.246;20.898;2022-08-03T00:22:49;16.80;;;13.83;;
19519;SDS011;9904;52.246;20.898;2022-08-03T00:25:16;17.83;;;13.37;;
19519;SDS011;9904;52.246;20.898;2022-08-03T00:27:43;20.60;;;13.10;;
19519;SDS011;9904;52.246;20.898;2022-08-03T00:30:10;19.17;;;12.77;;
19519;SDS011;9904;52.246;20.898;2022-08-03T00:32:37;17.40;;;13.73;;
19519;SDS011;9904;52.246;20.898;2022-08-03T00:35:10;20.87;;;14.90;;
19519;SDS011;9904;52.246;20.898;2022-08-03T00:37:57;18.80;;;13.77;;
19519;SDS011;9904;52.246;20.898;2022-08-03T00:40:24;17.30;;;13.77;;
19519;SDS011;9904;52.246;20.898;2022-08-03T00:42:52;16.77;;;13.10;;
19519;SDS011;9904;52.246;20.898;2022-08-03T00:45:24;19.77;;;15.50;;
19519;SDS011;9904;52.246;20.898;2022-08-03T00:47:55;21.13;;;14.20;;
19519;SDS011;9904;52.246;20.898;2022-08-03T00:50:22;21.87;;;14.80;;
19519;SDS011;9904;52.246;20.898;2022-08-03T00:52:54;19.23;;;13.60;;
19519;SDS011;9904;52.246;20.898;2022-08-03T00:55:21;20.33;;;14.70;;
19519;SDS011;9904;52.246;20.898;2022-08-03T00:57:49;20.77;;;14.43;;
19519;SDS011;9904;52.246;20.898;2022-08-03T01:00:17;16.03;;;13.17;;
19519;SDS011;9904;52.246;20.898;2022-08-03T01:02:45;18.03;;;13.63;;
19519;SDS011;9904;52.246;20.898;2022-08-03T01:05:12;21.83;;;14.03;;
19519;SDS011;9904;52.246;20.898;2022-08-03T01:07:45;18.30;;;12.57;;
19519;SDS011;9904;52.246;20.898;2022-08-03T01:10:39;20.03;;;12.60;;
19519;SDS011;9904;52.246;20.898;2022-08-03T01:16:08;22.20;;;15.27;;
19519;SDS011;9904;52.246;20.898;2022-08-03T01:18:44;20.70;;;14.50;;
19519;SDS011;9904;52.246;20.898;2022-08-03T01:21:20;17.07;;;13.87;;
19519;SDS011;9904;52.246;20.898;2022-08-03T01:24:05;23.50;;;16.93;;
19519;SDS011;9904;52.246;20.898;2022-08-03T01:27:06;25.73;;;16.80;;
19519;SDS011;9904;52.246;20.898;2022-08-03T01:29:56;22.40;;;18.07;;
19519;SDS011;9904;52.246;20.898;2022-08-03T01:35:28;29.87;;;22.60;;
19519;SDS011;9904;52.246;20.898;2022-08-03T01:38:47;27.43;;;19.40;;
19519;SDS011;9904;52.246;20.898;2022-08-03T01:41:03;25.53;;;16.33;;
19519;SDS011;9904;52.246;20.898;2022-08-03T01:43:34;20.10;;;16.10;;
19519;SDS011;9904;52.246;20.898;2022-08-03T01:46:22;19.93;;;14.87;;
19519;SDS011;9904;52.246;20.898;2022-08-03T01:48:51;22.67;;;17.90;;
19519;SDS011;9904;52.246;20.898;2022-08-03T01:51:18;26.57;;;17.03;;
19519;SDS011;9904;52.246;20.898;2022-08-03T01:53:45;22.80;;;17.03;;
19519;SDS011;9904;52.246;20.898;2022-08-03T01:56:13;24.87;;;17.50;;
19519;SDS011;9904;52.246;20.898;2022-08-03T01:58:42;21.67;;;15.40;;
19519;SDS011;9904;52.246;20.898;2022-08-03T02:01:09;18.07;;;13.50;;
19519;SDS011;9904;52.246;20.898;2022-08-03T02:03:37;20.10;;;14.50;;
19519;SDS011;9904;52.246;20.898;2022-08-03T02:06:25;20.97;;;14.17;;
19519;SDS011;9904;52.246;20.898;2022-08-03T02:09:13;24.20;;;15.47;;
19519;SDS011;9904;52.246;20.898;2022-08-03T02:11:40;18.73;;;15.07;;
19519;SDS011;9904;52.246;20.898;2022-08-03T02:14:08;21.20;;;15.77;;
19519;SDS011;9904;52.246;20.898;2022-08-03T02:16:35;25.67;;;17.77;;
19519;SDS011;9904;52.246;20.898;2022-08-03T02:19:04;21.23;;;14.67;;
19519;SDS011;9904;52.246;20.898;2022-08-03T02:21:35;22.60;;;13.67;;
19519;SDS011;9904;52.246;20.898;2022-08-03T02:24:22;22.90;;;15.90;;
19519;SDS011;9904;52.246;20.898;2022-08-03T02:26:49;20.23;;;14.10;;
19519;SDS011;9904;52.246;20.898;2022-08-03T02:29:19;20.27;;;13.53;;
19519;SDS011;9904;52.246;20.898;2022-08-03T02:32:05;19.50;;;13.97;;
19519;SDS011;9904;52.246;20.898;2022-08-03T02:34:35;30.27;;;19.40;;
19519;SDS011;9904;52.246;20.898;2022-08-03T02:37:02;33.07;;;20.40;;
19519;SDS011;9904;52.246;20.898;2022-08-03T02:39:30;26.67;;;18.53;;
19519;SDS011;9904;52.246;20.898;2022-08-03T02:41:59;20.67;;;14.83;;
19519;SDS011;9904;52.246;20.898;2022-08-03T02:44:31;18.60;;;13.47;;
19519;SDS011;9904;52.246;20.898;2022-08-03T02:47:02;18.20;;;13.50;;
19519;SDS011;9904;52.246;20.898;2022-08-03T02:49:30;20.50;;;13.67;;
19519;SDS011;9904;52.246;20.898;2022-08-03T02:52:15;26.63;;;17.80;;
19519;SDS011;9904;52.246;20.898;2022-08-03T02:54:43;19.53;;;14.10;;
19519;SDS011;9904;52.246;20.898;2022-08-03T02:57:11;27.10;;;17.97;;
19519;SDS011;9904;52.246;20.898;2022-08-03T02:59:39;20.77;;;15.20;;
19519;SDS011;9904;52.246;20.898;2022-08-03T03:02:06;20.67;;;13.97;;
19519;SDS011;9904;52.246;20.898;2022-08-03T03:04:33;21.53;;;14.20;;
19519;SDS011;9904;52.246;20.898;2022-08-03T03:07:01;22.33;;;14.43;;
19519;SDS011;9904;52.246;20.898;2022-08-03T03:09:30;18.93;;;11.73;;
19519;SDS011;9904;52.246;20.898;2022-08-03T03:12:08;15.53;;;12.37;;
19519;SDS011;9904;52.246;20.898;2022-08-03T03:14:36;15.13;;;12.47;;
19519;SDS011;9904;52.246;20.898;2022-08-03T03:17:03;18.77;;;13.73;;
19519;SDS011;9904;52.246;20.898;2022-08-03T03:19:32;18.83;;;14.17;;
19519;SDS011;9904;52.246;20.898;2022-08-03T03:22:00;22.40;;;16.33;;
19519;SDS011;9904;52.246;20.898;2022-08-03T03:24:28;25.73;;;17.53;;
19519;SDS011;9904;52.246;20.898;2022-08-03T03:26:55;20.70;;;15.07;;
19519;SDS011;9904;52.246;20.898;2022-08-03T03:29:22;21.60;;;13.20;;
19519;SDS011;9904;52.246;20.898;2022-08-03T03:31:49;21.00;;;14.63;;
19519;SDS011;9904;52.246;20.898;2022-08-03T03:34:16;22.77;;;14.17;;
19519;SDS011;9904;52.246;20.898;2022-08-03T03:36:43;24.50;;;14.70;;
19519;SDS011;9904;52.246;20.898;2022-08-03T03:39:10;17.53;;;13.20;;
19519;SDS011;9904;52.246;20.898;2022-08-03T03:41:41;23.13;;;14.23;;
19519;SDS011;9904;52.246;20.898;2022-08-03T03:44:08;40.57;;;25.33;;
19519;SDS011;9904;52.246;20.898;2022-08-03T03:46:34;33.63;;;21.17;;
19519;SDS011;9904;52.246;20.898;2022-08-03T03:49:01;26.20;;;16.80;;
19519;SDS011;9904;52.246;20.898;2022-08-03T03:51:28;21.30;;;15.97;;
19519;SDS011;9904;52.246;20.898;2022-08-03T03:53:57;21.57;;;15.67;;
19519;SDS011;9904;52.246;20.898;2022-08-03T03:56:25;24.10;;;15.33;;
19519;SDS011;9904;52.246;20.898;2022-08-03T03:58:53;18.67;;;13.90;;
19519;SDS011;9904;52.246;20.898;2022-08-03T04:01:20;18.97;;;14.07;;
19519;SDS011;9904;52.246;20.898;2022-08-03T04:03:46;24.13;;;16.87;;
19519;SDS011;9904;52.246;20.898;2022-08-03T04:06:13;23.37;;;15.27;;
19519;SDS011;9904;52.246;20.898;2022-08-03T04:08:59;23.23;;;15.97;;
19519;SDS011;9904;52.246;20.898;2022-08-03T04:11:46;24.83;;;15.50;;
19519;SDS011;9904;52.246;20.898;2022-08-03T04:16:49;20.70;;;14.53;;
19519;SDS011;9904;52.246;20.898;2022-08-03T04:19:22;23.13;;;15.90;;
19519;SDS011;9904;52.246;20.898;2022-08-03T04:21:53;20.47;;;14.63;;
19519;SDS011;9904;52.246;20.898;2022-08-03T04:24:22;22.13;;;15.63;;
19519;SDS011;9904;52.246;20.898;2022-08-03T04:26:51;26.23;;;15.47;;
19519;SDS011;9904;52.246;20.898;2022-08-03T04:29:18;25.80;;;15.83;;
19519;SDS011;9904;52.246;20.898;2022-08-03T04:31:46;26.63;;;15.07;;
19519;SDS011;9904;52.246;20.898;2022-08-03T04:34:13;20.07;;;14.23;;
19519;SDS011;9904;52.246;20.898;2022-08-03T04:36:43;27.77;;;16.33;;
19519;SDS011;9904;52.246;20.898;2022-08-03T04:39:15;25.87;;;15.63;;
19519;SDS011;9904;52.246;20.898;2022-08-03T04:41:47;24.63;;;16.20;;
19519;SDS011;9904;52.246;20.898;2022-08-03T04:44:37;22.90;;;15.33;;
19519;SDS011;9904;52.246;20.898;2022-08-03T04:47:05;24.80;;;16.53;;
19519;SDS011;9904;52.246;20.898;2022-08-03T04:49:33;21.53;;;15.73;;
19519;SDS011;9904;52.246;20.898;2022-08-03T04:52:01;21.97;;;15.27;;
19519;SDS011;9904;52.246;20.898;2022-08-03T04:54:28;29.97;;;17.17;;
19519;SDS011;9904;52.246;20.898;2022-08-03T04:56:55;22.83;;;16.63;;
19519;SDS011;9904;52.246;20.898;2022-08-03T04:59:21;21.53;;;14.53;;
19519;SDS011;9904;52.246;20.898;2022-08-03T05:01:48;29.00;;;17.33;;
19519;SDS011;9904;52.246;20.898;2022-08-03T05:04:14;26.23;;;17.50;;
19519;SDS011;9904;52.246;20.898;2022-08-03T05:06:41;33.93;;;19.47;;
19519;SDS011;9904;52.246;20.898;2022-08-03T05:09:13;32.70;;;19.37;;
19519;SDS011;9904;52.246;20.898;2022-08-03T05:11:51;24.53;;;16.53;;
19519;SDS011;9904;52.246;20.898;2022-08-03T05:14:17;22.43;;;15.97;;
19519;SDS011;9904;52.246;20.898;2022-08-03T05:16:53;20.47;;;15.63;;
19519;SDS011;9904;52.246;20.898;2022-08-03T05:19:19;24.20;;;15.63;;
19519;SDS011;9904;52.246;20.898;2022-08-03T05:21:46;27.83;;;17.37;;
19519;SDS011;9904;52.246;20.898;2022-08-03T05:24:18;29.93;;;18.10;;
19519;SDS011;9904;52.246;20.898;2022-08-03T05:26:45;27.00;;;18.10;;
19519;SDS011;9904;52.246;20.898;2022-08-03T05:29:11;23.80;;;17.90;;
19519;SDS011;9904;52.246;20.898;2022-08-03T05:31:38;23.00;;;16.03;;
19519;SDS011;9904;52.246;20.898;2022-08-03T05:34:06;23.73;;;16.17;;
19519;SDS011;9904;52.246;20.898;2022-08-03T05:36:32;30.87;;;17.03;;
19519;SDS011;9904;52.246;20.898;2022-08-03T05:38:59;25.17;;;16.97;;
19519;SDS011;9904;52.246;20.898;2022-08-03T05:41:28;25.53;;;17.53;;
19519;SDS011;9904;52.246;20.898;2022-08-03T05:44:02;24.17;;;17.00;;
19519;SDS011;9904;52.246;20.898;2022-08-03T05:46:29;27.90;;;16.00;;
19519;SDS011;9904;52.246;20.898;2022-08-03T05:48:56;24.17;;;16.30;;
19519;SDS011;9904;52.246;20.898;2022-08-03T05:51:22;26.13;;;15.33;;
19519;SDS011;9904;52.246;20.898;2022-08-03T05:53:49;25.07;;;16.07;;
19519;SDS011;9904;52.246;20.898;2022-08-03T05:56:16;27.17;;;17.93;;
19519;SDS011;9904;52.246;20.898;2022-08-03T05:58:43;26.90;;;17.07;;
19519;SDS011;9904;52.246;20.898;2022-08-03T06:01:10;23.17;;;15.63;;
19519;SDS011;9904;52.246;20.898;2022-08-03T06:03:37;23.43;;;16.63;;
19519;SDS011;9904;52.246;20.898;2022-08-03T06:06:04;22.13;;;15.80;;
19519;SDS011;9904;52.246;20.898;2022-08-03T06:08:30;25.67;;;16.50;;
19519;SDS011;9904;52.246;20.898;2022-08-03T06:10:58;27.67;;;17.77;;
19519;SDS011;9904;52.246;20.898;2022-08-03T06:13:24;23.40;;;15.63;;
19519;SDS011;9904;52.246;20.898;2022-08-03T06:15:51;25.77;;;15.50;;
19519;SDS011;9904;52.246;20.898;2022-08-03T06:18:17;23.17;;;13.00;;
19519;SDS011;9904;52.246;20.898;2022-08-03T06:20:44;26.13;;;14.07;;
19519;SDS011;9904;52.246;20.898;2022-08-03T06:23:14;18.60;;;13.30;;
19519;SDS011;9904;52.246;20.898;2022-08-03T06:25:44;17.77;;;12.33;;
19519;SDS011;9904;52.246;20.898;2022-08-03T06:28:11;21.23;;;13.23;;
19519;SDS011;9904;52.246;20.898;2022-08-03T06:30:59;20.17;;;13.93;;
19519;SDS011;9904;52.246;20.898;2022-08-03T06:33:26;24.20;;;13.20;;
19519;SDS011;9904;52.246;20.898;2022-08-03T06:36:13;22.00;;;13.63;;
19519;SDS011;9904;52.246;20.898;2022-08-03T06:38:40;19.80;;;15.23;;
19519;SDS011;9904;52.246;20.898;2022-08-03T06:41:07;19.40;;;12.50;;
19519;SDS011;9904;52.246;20.898;2022-08-03T06:43:33;22.43;;;12.90;;
19519;SDS011;9904;52.246;20.898;2022-08-03T06:46:03;21.70;;;13.80;;
19519;SDS011;9904;52.246;20.898;2022-08-03T06:48:33;22.60;;;13.80;;
19519;SDS011;9904;52.246;20.898;2022-08-03T06:51:00;18.07;;;12.20;;
19519;SDS011;9904;52.246;20.898;2022-08-03T06:53:26;22.73;;;14.10;;
19519;SDS011;9904;52.246;20.898;2022-08-03T06:55:53;19.87;;;13.37;;
19519;SDS011;9904;52.246;20.898;2022-08-03T06:58:20;22.37;;;13.70;;
19519;SDS011;9904;52.246;20.898;2022-08-03T07:00:47;22.33;;;13.70;;
19519;SDS011;9904;52.246;20.898;2022-08-03T07:03:14;23.20;;;12.90;;
19519;SDS011;9904;52.246;20.898;2022-08-03T07:05:41;21.63;;;12.40;;
19519;SDS011;9904;52.246;20.898;2022-08-03T07:08:09;19.33;;;10.83;;
19519;SDS011;9904;52.246;20.898;2022-08-03T07:10:35;24.20;;;12.70;;
19519;SDS011;9904;52.246;20.898;2022-08-03T07:13:02;18.77;;;11.97;;
19519;SDS011;9904;52.246;20.898;2022-08-03T07:15:29;20.10;;;11.70;;
19519;SDS011;9904;52.246;20.898;2022-08-03T07:18:16;15.43;;;8.98;;
19519;SDS011;9904;52.246;20.898;2022-08-03T07:20:54;24.60;;;12.60;;
19519;SDS011;9904;52.246;20.898;2022-08-03T07:23:21;20.00;;;10.98;;
19519;SDS011;9904;52.246;20.898;2022-08-03T07:25:47;15.48;;;10.50;;
19519;SDS011;9904;52.246;20.898;2022-08-03T07:28:14;22.23;;;10.43;;
19519;SDS011;9904;52.246;20.898;2022-08-03T07:30:40;16.90;;;8.60;;
19519;SDS011;9904;52.246;20.898;2022-08-03T07:33:07;18.75;;;9.93;;
19519;SDS011;9904;52.246;20.898;2022-08-03T07:35:34;20.20;;;10.18;;
19519;SDS011;9904;52.246;20.898;2022-08-03T07:38:00;16.52;;;9.50;;
19519;SDS011;9904;52.246;20.898;2022-08-03T07:40:27;12.57;;;7.88;;
19519;SDS011;9904;52.246;20.898;2022-08-03T07:42:56;11.45;;;7.90;;
19519;SDS011;9904;52.246;20.898;2022-08-03T07:45:23;13.23;;;6.80;;
19519;SDS011;9904;52.246;20.898;2022-08-03T07:47:51;11.52;;;6.32;;
19519;SDS011;9904;52.246;20.898;2022-08-03T07:50:19;13.50;;;7.00;;
19519;SDS011;9904;52.246;20.898;2022-08-03T07:52:47;18.75;;;7.88;;
19519;SDS011;9904;52.246;20.898;2022-08-03T07:55:15;16.27;;;7.90;;
19519;SDS011;9904;52.246;20.898;2022-08-03T07:57:42;11.80;;;6.78;;
19519;SDS011;9904;52.246;20.898;2022-08-03T08:00:14;15.82;;;6.32;;
19519;SDS011;9904;52.246;20.898;2022-08-03T08:02:42;10.20;;;6.25;;
19519;SDS011;9904;52.246;20.898;2022-08-03T08:05:10;9.50;;;5.63;;
19519;SDS011;9904;52.246;20.898;2022-08-03T08:07:37;16.47;;;6.80;;
19519;SDS011;9904;52.246;20.898;2022-08-03T08:10:05;13.45;;;5.97;;
19519;SDS011;9904;52.246;20.898;2022-08-03T08:12:32;12.20;;;5.95;;
19519;SDS011;9904;52.246;20.898;2022-08-03T08:14:59;11.15;;;5.20;;
19519;SDS011;9904;52.246;20.898;2022-08-03T08:17:26;8.95;;;4.97;;
19519;SDS011;9904;52.246;20.898;2022-08-03T08:19:53;9.13;;;5.20;;
19519;SDS011;9904;52.246;20.898;2022-08-03T08:22:20;7.75;;;4.28;;
19519;SDS011;9904;52.246;20.898;2022-08-03T08:24:57;8.00;;;3.53;;
19519;SDS011;9904;52.246;20.898;2022-08-03T08:27:24;7.70;;;3.80;;
19519;SDS011;9904;52.246;20.898;2022-08-03T08:29:51;6.88;;;4.03;;
19519;SDS011;9904;52.246;20.898;2022-08-03T08:32:21;7.95;;;4.00;;
19519;SDS011;9904;52.246;20.898;2022-08-03T08:34:48;8.13;;;3.78;;
19519;SDS011;9904;52.246;20.898;2022-08-03T08:37:15;7.33;;;4.23;;
19519;SDS011;9904;52.246;20.898;2022-08-03T08:39:41;6.30;;;3.70;;
19519;SDS011;9904;52.246;20.898;2022-08-03T08:42:08;5.70;;;3.80;;
19519;SDS011;9904;52.246;20.898;2022-08-03T08:44:35;8.10;;;3.65;;
19519;SDS011;9904;52.246;20.898;2022-08-03T08:47:01;8.98;;;3.50;;
19519;SDS011;9904;52.246;20.898;2022-08-03T08:49:29;5.70;;;2.83;;
19519;SDS011;9904;52.246;20.898;2022-08-03T08:51:58;6.25;;;2.83;;
19519;SDS011;9904;52.246;20.898;2022-08-03T08:54:26;7.47;;;2.50;;
19519;SDS011;9904;52.246;20.898;2022-08-03T08:56:54;6.57;;;2.15;;
19519;SDS011;9904;52.246;20.898;2022-08-03T08:59:21;6.78;;;2.70;;
19519;SDS011;9904;52.246;20.898;2022-08-03T09:01:49;5.05;;;2.30;;
19519;SDS011;9904;52.246;20.898;2022-08-03T09:04:16;4.57;;;2.30;;
19519;SDS011;9904;52.246;20.898;2022-08-03T09:06:42;4.60;;;2.57;;
19519;SDS011;9904;52.246;20.898;2022-08-03T09:09:30;9.40;;;3.35;;
19519;SDS011;9904;52.246;20.898;2022-08-03T09:12:17;11.32;;;2.53;;
19519;SDS011;9904;52.246;20.898;2022-08-03T09:17:55;7.85;;;2.80;;
19519;SDS011;9904;52.246;20.898;2022-08-03T09:20:24;7.25;;;3.20;;
19519;SDS011;9904;52.246;20.898;2022-08-03T09:25:25;4.30;;;2.50;;
19519;SDS011;9904;52.246;20.898;2022-08-03T09:28:03;5.95;;;2.20;;
19519;SDS011;9904;52.246;20.898;2022-08-03T09:30:31;14.20;;;2.60;;
19519;SDS011;9904;52.246;20.898;2022-08-03T09:33:00;6.35;;;2.53;;
19519;SDS011;9904;52.246;20.898;2022-08-03T09:35:28;4.65;;;2.67;;
19519;SDS011;9904;52.246;20.898;2022-08-03T09:40:44;3.58;;;2.10;;
19519;SDS011;9904;52.246;20.898;2022-08-03T09:43:12;3.17;;;2.13;;
19519;SDS011;9904;52.246;20.898;2022-08-03T09:45:39;6.90;;;2.45;;
19519;SDS011;9904;52.246;20.898;2022-08-03T09:51:02;5.87;;;3.27;;
19519;SDS011;9904;52.246;20.898;2022-08-03T09:53:49;5.03;;;2.85;;
19519;SDS011;9904;52.246;20.898;2022-08-03T09:56:36;5.07;;;2.87;;
19519;SDS011;9904;52.246;20.898;2022-08-03T09:59:04;3.73;;;2.70;;
19519;SDS011;9904;52.246;20.898;2022-08-03T10:01:33;7.25;;;2.92;;
19519;SDS011;9904;52.246;20.898;2022-08-03T10:04:00;4.90;;;2.30;;
19519;SDS011;9904;52.246;20.898;2022-08-03T10:06:29;5.05;;;2.38;;
19519;SDS011;9904;52.246;20.898;2022-08-03T10:09:06;4.40;;;2.87;;
19519;SDS011;9904;52.246;20.898;2022-08-03T10:11:37;5.80;;;2.58;;
19519;SDS011;9904;52.246;20.898;2022-08-03T10:14:08;6.20;;;2.93;;
19519;SDS011;9904;52.246;20.898;2022-08-03T10:16:39;6.73;;;2.80;;
19519;SDS011;9904;52.246;20.898;2022-08-03T10:19:06;6.17;;;2.70;;
19519;SDS011;9904;52.246;20.898;2022-08-03T10:21:34;6.73;;;2.67;;
19519;SDS011;9904;52.246;20.898;2022-08-03T10:24:03;6.87;;;2.50;;
19519;SDS011;9904;52.246;20.898;2022-08-03T10:26:32;4.18;;;2.50;;
19519;SDS011;9904;52.246;20.898;2022-08-03T10:29:06;6.25;;;2.40;;
19519;SDS011;9904;52.246;20.898;2022-08-03T10:31:38;3.50;;;2.15;;
19519;SDS011;9904;52.246;20.898;2022-08-03T10:34:23;3.83;;;2.47;;
19519;SDS011;9904;52.246;20.898;2022-08-03T10:36:51;5.50;;;2.90;;
19519;SDS011;9904;52.246;20.898;2022-08-03T10:39:22;5.57;;;2.90;;
19519;SDS011;9904;52.246;20.898;2022-08-03T10:41:49;4.40;;;2.90;;
19519;SDS011;9904;52.246;20.898;2022-08-03T10:44:18;3.65;;;2.63;;
19519;SDS011;9904;52.246;20.898;2022-08-03T10:46:46;6.70;;;2.90;;
19519;SDS011;9904;52.246;20.898;2022-08-03T10:49:14;11.20;;;2.80;;
19519;SDS011;9904;52.246;20.898;2022-08-03T10:51:59;5.53;;;2.70;;
19519;SDS011;9904;52.246;20.898;2022-08-03T10:57:00;4.82;;;3.05;;
19519;SDS011;9904;52.246;20.898;2022-08-03T11:02:15;4.77;;;2.50;;
19519;SDS011;9904;52.246;20.898;2022-08-03T11:04:42;3.80;;;2.30;;
19519;SDS011;9904;52.246;20.898;2022-08-03T11:09:52;8.03;;;2.43;;
19519;SDS011;9904;52.246;20.898;2022-08-03T11:12:26;4.95;;;2.25;;
19519;SDS011;9904;52.246;20.898;2022-08-03T11:15:00;4.03;;;2.70;;
19519;SDS011;9904;52.246;20.898;2022-08-03T11:17:29;4.37;;;2.30;;
19519;SDS011;9904;52.246;20.898;2022-08-03T11:19:55;6.60;;;2.42;;
19519;SDS011;9904;52.246;20.898;2022-08-03T11:22:24;6.32;;;2.40;;
19519;SDS011;9904;52.246;20.898;2022-08-03T11:27:20;7.70;;;2.80;;
19519;SDS011;9904;52.246;20.898;2022-08-03T11:30:01;6.90;;;2.53;;
19519;SDS011;9904;52.246;20.898;2022-08-03T11:37:34;4.63;;;3.00;;
19519;SDS011;9904;52.246;20.898;2022-08-03T11:40:01;8.20;;;2.63;;
19519;SDS011;9904;52.246;20.898;2022-08-03T11:44:59;4.10;;;2.50;;
19519;SDS011;9904;52.246;20.898;2022-08-03T11:47:26;4.38;;;2.67;;
19519;SDS011;9904;52.246;20.898;2022-08-03T11:49:54;4.47;;;2.70;;
19519;SDS011;9904;52.246;20.898;2022-08-03T11:52:27;3.85;;;2.63;;
19519;SDS011;9904;52.246;20.898;2022-08-03T11:55:00;5.65;;;3.20;;
19519;SDS011;9904;52.246;20.898;2022-08-03T11:57:27;7.07;;;2.87;;
19519;SDS011;9904;52.246;20.898;2022-08-03T12:00:28;5.03;;;2.63;;
19519;SDS011;9904;52.246;20.898;2022-08-03T12:03:08;6.38;;;3.08;;
19519;SDS011;9904;52.246;20.898;2022-08-03T12:05:38;3.75;;;2.55;;
19519;SDS011;9904;52.246;20.898;2022-08-03T12:08:39;5.22;;;3.00;;
19519;SDS011;9904;52.246;20.898;2022-08-03T12:11:05;5.05;;;2.55;;
19519;SDS011;9904;52.246;20.898;2022-08-03T12:13:40;5.95;;;2.60;;
19519;SDS011;9904;52.246;20.898;2022-08-03T12:16:28;4.28;;;2.85;;
19519;SDS011;9904;52.246;20.898;2022-08-03T12:18:58;6.85;;;2.78;;
19519;SDS011;9904;52.246;20.898;2022-08-03T12:21:33;5.25;;;3.72;;
19519;SDS011;9904;52.246;20.898;2022-08-03T12:24:03;7.13;;;3.97;;
19519;SDS011;9904;52.246;20.898;2022-08-03T12:26:41;5.63;;;3.00;;
19519;SDS011;9904;52.246;20.898;2022-08-03T12:29:24;7.53;;;3.28;;
19519;SDS011;9904;52.246;20.898;2022-08-03T12:31:51;11.23;;;3.30;;
19519;SDS011;9904;52.246;20.898;2022-08-03T12:34:21;6.20;;;3.63;;
19519;SDS011;9904;52.246;20.898;2022-08-03T12:36:51;6.80;;;3.10;;
19519;SDS011;9904;52.246;20.898;2022-08-03T12:39:21;6.65;;;3.08;;
19519;SDS011;9904;52.246;20.898;2022-08-03T12:41:52;6.43;;;3.13;;
19519;SDS011;9904;52.246;20.898;2022-08-03T12:44:28;7.55;;;3.38;;
19519;SDS011;9904;52.246;20.898;2022-08-03T12:46:58;7.07;;;2.97;;
19519;SDS011;9904;52.246;20.898;2022-08-03T12:49:25;7.90;;;3.10;;
19519;SDS011;9904;52.246;20.898;2022-08-03T12:54:20;4.17;;;2.97;;
19519;SDS011;9904;52.246;20.898;2022-08-03T12:57:02;5.80;;;3.22;;
19519;SDS011;9904;52.246;20.898;2022-08-03T13:02:05;5.35;;;3.10;;
19519;SDS011;9904;52.246;20.898;2022-08-03T13:04:44;11.10;;;3.20;;
19519;SDS011;9904;52.246;20.898;2022-08-03T13:07:12;3.50;;;3.15;;
19519;SDS011;9904;52.246;20.898;2022-08-03T13:09:41;3.03;;;2.67;;
19519;SDS011;9904;52.246;20.898;2022-08-03T13:12:10;7.50;;;3.30;;
19519;SDS011;9904;52.246;20.898;2022-08-03T13:14:39;4.05;;;2.83;;
19519;SDS011;9904;52.246;20.898;2022-08-03T13:17:07;6.88;;;2.83;;
19519;SDS011;9904;52.246;20.898;2022-08-03T13:19:36;6.03;;;2.88;;
19519;SDS011;9904;52.246;20.898;2022-08-03T13:22:19;4.75;;;3.08;;
19519;SDS011;9904;52.246;20.898;2022-08-03T13:24:51;7.35;;;3.00;;
19519;SDS011;9904;52.246;20.898;2022-08-03T13:27:18;5.75;;;3.20;;
19519;SDS011;9904;52.246;20.898;2022-08-03T13:30:05;6.90;;;3.47;;
19519;SDS011;9904;52.246;20.898;2022-08-03T13:32:33;4.22;;;3.03;;
19519;SDS011;9904;52.246;20.898;2022-08-03T13:35:00;5.88;;;3.65;;
19519;SDS011;9904;52.246;20.898;2022-08-03T13:37:28;6.07;;;3.00;;
19519;SDS011;9904;52.246;20.898;2022-08-03T13:39:58;4.00;;;3.08;;
19519;SDS011;9904;52.246;20.898;2022-08-03T13:42:29;6.07;;;3.15;;
19519;SDS011;9904;52.246;20.898;2022-08-03T13:44:56;6.25;;;3.33;;
19519;SDS011;9904;52.246;20.898;2022-08-03T13:47:23;12.48;;;3.65;;
19519;SDS011;9904;52.246;20.898;2022-08-03T13:49:50;7.40;;;3.22;;
19519;SDS011;9904;52.246;20.898;2022-08-03T13:52:33;17.05;;;3.92;;
19519;SDS011;9904;52.246;20.898;2022-08-03T13:55:02;6.80;;;2.92;;
19519;SDS011;9904;52.246;20.898;2022-08-03T13:57:30;7.43;;;3.47;;
19519;SDS011;9904;52.246;20.898;2022-08-03T14:00:17;6.45;;;3.35;;
19519;SDS011;9904;52.246;20.898;2022-08-03T14:02:54;6.68;;;3.53;;
19519;SDS011;9904;52.246;20.898;2022-08-03T14:05:28;5.87;;;3.23;;
19519;SDS011;9904;52.246;20.898;2022-08-03T14:07:57;5.32;;;3.55;;
19519;SDS011;9904;52.246;20.898;2022-08-03T14:10:30;6.45;;;3.85;;
19519;SDS011;9904;52.246;20.898;2022-08-03T14:13:01;5.15;;;3.17;;
19519;SDS011;9904;52.246;20.898;2022-08-03T14:15:29;5.68;;;3.10;;
19519;SDS011;9904;52.246;20.898;2022-08-03T14:17:55;6.80;;;3.17;;
19519;SDS011;9904;52.246;20.898;2022-08-03T14:20:24;6.50;;;2.80;;
19519;SDS011;9904;52.246;20.898;2022-08-03T14:23:11;4.13;;;3.17;;
19519;SDS011;9904;52.246;20.898;2022-08-03T14:25:39;6.15;;;3.03;;
19519;SDS011;9904;52.246;20.898;2022-08-03T14:28:18;4.50;;;3.35;;
19519;SDS011;9904;52.246;20.898;2022-08-03T14:30:48;7.38;;;3.30;;
19519;SDS011;9904;52.246;20.898;2022-08-03T14:33:15;6.13;;;3.50;;
19519;SDS011;9904;52.246;20.898;2022-08-03T14:35:42;7.32;;;3.33;;
19519;SDS011;9904;52.246;20.898;2022-08-03T14:38:08;4.93;;;3.53;;
19519;SDS011;9904;52.246;20.898;2022-08-03T14:40:35;4.10;;;3.13;;
19519;SDS011;9904;52.246;20.898;2022-08-03T14:43:01;6.15;;;3.58;;
19519;SDS011;9904;52.246;20.898;2022-08-03T14:45:28;6.18;;;2.92;;
19519;SDS011;9904;52.246;20.898;2022-08-03T14:47:55;6.28;;;3.65;;
19519;SDS011;9904;52.246;20.898;2022-08-03T14:50:41;4.78;;;3.33;;
19519;SDS011;9904;52.246;20.898;2022-08-03T14:53:16;8.65;;;4.47;;
19519;SDS011;9904;52.246;20.898;2022-08-03T14:55:43;3.37;;;3.07;;
19519;SDS011;9904;52.246;20.898;2022-08-03T14:58:16;5.65;;;3.30;;
19519;SDS011;9904;52.246;20.898;2022-08-03T15:00:47;7.28;;;3.33;;
19519;SDS011;9904;52.246;20.898;2022-08-03T15:03:15;3.72;;;3.15;;
19519;SDS011;9904;52.246;20.898;2022-08-03T15:05:43;5.43;;;3.30;;
19519;SDS011;9904;52.246;20.898;2022-08-03T15:08:09;6.75;;;3.22;;
19519;SDS011;9904;52.246;20.898;2022-08-03T15:10:36;4.90;;;3.00;;
19519;SDS011;9904;52.246;20.898;2022-08-03T15:13:09;7.50;;;3.28;;
19519;SDS011;9904;52.246;20.898;2022-08-03T15:15:36;3.95;;;3.30;;
19519;SDS011;9904;52.246;20.898;2022-08-03T15:18:03;6.90;;;3.22;;
19519;SDS011;9904;52.246;20.898;2022-08-03T15:20:30;5.60;;;3.40;;
19519;SDS011;9904;52.246;20.898;2022-08-03T15:23:09;7.70;;;3.40;;
19519;SDS011;9904;52.246;20.898;2022-08-03T15:25:36;5.40;;;3.65;;
19519;SDS011;9904;52.246;20.898;2022-08-03T15:28:22;4.63;;;3.28;;
19519;SDS011;9904;52.246;20.898;2022-08-03T15:30:50;6.43;;;3.30;;
19519;SDS011;9904;52.246;20.898;2022-08-03T15:33:18;5.68;;;3.70;;
19519;SDS011;9904;52.246;20.898;2022-08-03T15:35:44;6.35;;;3.50;;